Soldotna, AK

1:34 AM AKST on December 03, 2016 (GMT -0900)
W. Corral PWS | | Change Station

Elev 110 ft 60.49 °N, 151.08 °W | Updated 8 seconds ago

Overcast
Overcast
8.2 °F
Feels Like 8 °F
N
2.2
Wind Variable Wind from West
Gusts 2.2 mph

Today
High -- | Low -- °F
--% Chance of Precip.
Yesterday
High -- | Low -- °F
Precip. -- in
Pressure 29.57 in
Visibility 10.0 miles
Clouds Scattered Clouds 8000 ft
Scattered Clouds 8500 ft
Overcast 10000 ft
Windchill 8 °F
Dew Point 8 °F
Humidity 97%
Rainfall 0.00 in
Snow Depth Not available.
9:48 AM 3:59 PM
Waxing Crescent, 14% visible
METAR PASX 031016Z AUTO 00000KT 10SM SCT080 SCT085 OVC100 M14/M14 A2957 RMK AO1
Pressure 29.57 in
Visibility 10.0 miles
Clouds Scattered Clouds 8000 ft
Scattered Clouds 8500 ft
Overcast 10000 ft
Windchill 8 °F
Dew Point 8 °F
Humidity 97%
Rainfall 0.00 in
Snow Depth Not available.
9:48 AM 3:59 PM
Waxing Crescent, 14% visible
METAR PASX 031016Z AUTO 00000KT 10SM SCT080 SCT085 OVC100 M14/M14 A2957 RMK AO1

10-Day Weather Forecast

Almanac

Astronomy

Dec. 03, 2016 Rise Set
Actual Time
Civil Twilight
Nautical Twilight
Astronomical Twilight
Moon
Length of Visible Light
Length of Day
Tomorrow will be .
, % of the Moon is Illuminated

Today's Extremes

State Highs State Lows

Community

WunderPhotos

Upload Photos

1,955,434 photos uploaded!

WunderBlog® & News

Nearby

Air Quality

  Air Quality AQ Index Pollutant
Not available.

Snow Depth

Station Depth Elevation

Earthquake Activity

City Distance Mag. Time & Date
Minimum magnitude displayed is 2.5.

Coastal Water Temperatures

Place Temperature

Stations

Nearby Weather Stations

Station Location Temp. Windchill Dew Point Humidity Wind Precip. Elev Updated Type
                   

Watches & Warnings

There are currently no watches in effect.